createdAt,value
2022-11-14T00:00:31.932Z,10.10
2022-11-14T00:03:07.459Z,8.93
2022-11-14T00:05:36.709Z,9.43
2022-11-14T00:08:07.906Z,9.57
2022-11-14T00:10:35.957Z,9.60
2022-11-14T00:13:04.091Z,9.27
2022-11-14T00:15:33.369Z,9.57
2022-11-14T00:18:01.431Z,9.60
2022-11-14T00:20:29.601Z,9.47
2022-11-14T00:22:58.591Z,10.10
2022-11-14T00:25:26.664Z,10.30
2022-11-14T00:27:57.694Z,10.73
2022-11-14T00:30:30.145Z,10.57
2022-11-14T00:33:02.846Z,10.17
2022-11-14T00:35:30.779Z,11.60
2022-11-14T00:37:59.027Z,10.37
2022-11-14T00:40:27.165Z,10.40
2022-11-14T00:42:55.269Z,11.47
2022-11-14T00:45:23.377Z,11.07
2022-11-14T00:47:51.834Z,11.40
2022-11-14T00:50:20.832Z,10.63
2022-11-14T00:52:53.313Z,10.73
2022-11-14T00:55:21.575Z,11.17
2022-11-14T00:57:54.187Z,10.97
2022-11-14T01:00:25.295Z,11.57
2022-11-14T01:03:00.897Z,11.63
2022-11-14T01:05:29.219Z,11.37
2022-11-14T01:07:57.244Z,10.90
2022-11-14T01:10:26.251Z,11.53
2022-11-14T01:12:54.570Z,11.87
2022-11-14T01:15:22.591Z,11.67
2022-11-14T01:17:54.893Z,10.30
2022-11-14T01:20:22.911Z,10.67
2022-11-14T01:22:50.941Z,11.93
2022-11-14T01:25:18.960Z,11.10
2022-11-14T01:27:57.666Z,10.57
2022-11-14T01:30:25.846Z,11.40
2022-11-14T01:32:56.795Z,11.20
2022-11-14T01:35:24.971Z,10.73
2022-11-14T01:37:57.273Z,9.93
2022-11-14T01:40:25.356Z,11.13
2022-11-14T01:43:17.020Z,10.47
2022-11-14T01:46:17.788Z,10.50
2022-11-14T01:49:06.880Z,10.10
2022-11-14T01:51:50.149Z,10.63
2022-11-14T01:54:25.391Z,10.73
2022-11-14T01:57:00.631Z,11.43
2022-11-14T01:59:39.823Z,11.80
2022-11-14T02:02:15.384Z,11.20
2022-11-14T02:04:46.158Z,11.10
2022-11-14T02:07:14.254Z,10.80
2022-11-14T02:09:48.856Z,11.33
2022-11-14T02:12:18.497Z,11.00
2022-11-14T02:14:47.423Z,10.70
2022-11-14T02:17:31.677Z,11.57
2022-11-14T02:20:11.908Z,10.67
2022-11-14T02:22:44.298Z,11.63
2022-11-14T02:25:12.465Z,11.13
2022-11-14T02:27:44.663Z,11.40
2022-11-14T02:30:20.420Z,11.40
2022-11-14T02:35:41.700Z,11.97
2022-11-14T02:38:09.978Z,12.20
2022-11-14T02:40:38.154Z,12.30
2022-11-14T02:43:10.605Z,11.23
2022-11-14T02:45:38.647Z,11.60
2022-11-14T02:48:08.231Z,11.87
2022-11-14T02:50:36.532Z,12.50
2022-11-14T02:53:04.702Z,12.20
2022-11-14T02:55:32.900Z,11.70
2022-11-14T02:58:05.622Z,11.60
2022-11-14T03:00:33.562Z,11.33
2022-11-14T03:03:06.310Z,12.03
2022-11-14T03:05:34.343Z,12.00
2022-11-14T03:08:02.429Z,11.63
2022-11-14T03:10:34.603Z,11.83
2022-11-14T03:13:02.612Z,11.37
2022-11-14T03:15:30.726Z,11.60
2022-11-14T03:17:58.768Z,12.00
2022-11-14T03:20:26.872Z,11.10
2022-11-14T03:23:00.511Z,11.83
2022-11-14T03:25:34.668Z,11.50
2022-11-14T03:28:02.898Z,11.83
2022-11-14T03:30:31.134Z,12.03
2022-11-14T03:33:01.946Z,12.43
2022-11-14T03:35:31.678Z,12.10
2022-11-14T03:37:59.745Z,11.33
2022-11-14T03:40:27.762Z,11.53
2022-11-14T03:42:55.881Z,11.83
2022-11-14T03:45:23.963Z,12.03
2022-11-14T03:47:52.120Z,12.43
2022-11-14T03:53:26.966Z,11.47
2022-11-14T03:55:55.301Z,11.40
2022-11-14T03:58:23.377Z,11.80
2022-11-14T04:00:51.541Z,11.83
2022-11-14T04:03:19.783Z,11.40
2022-11-14T04:05:50.504Z,11.40
2022-11-14T04:08:29.038Z,10.67
2022-11-14T04:10:57.267Z,10.27
2022-11-14T04:13:27.822Z,10.47
2022-11-14T04:16:01.014Z,10.70
2022-11-14T04:18:29.333Z,11.57
2022-11-14T04:21:02.477Z,10.70
2022-11-14T04:23:34.972Z,10.80
2022-11-14T04:26:03.011Z,10.73
2022-11-14T04:28:31.628Z,10.70
2022-11-14T04:31:03.099Z,10.90
2022-11-14T04:33:35.861Z,10.47
2022-11-14T04:36:03.916Z,10.43
2022-11-14T04:38:32.387Z,10.70
2022-11-14T04:41:00.827Z,10.60
2022-11-14T04:43:34.965Z,10.63
2022-11-14T04:46:03.029Z,9.90
2022-11-14T04:48:31.358Z,10.77
2022-11-14T04:50:59.663Z,10.20
2022-11-14T04:53:33.239Z,10.13
2022-11-14T04:56:04.795Z,10.17
2022-11-14T04:58:33.022Z,10.13
2022-11-14T05:01:10.688Z,9.80
2022-11-14T05:03:38.843Z,10.70
2022-11-14T05:06:07.079Z,9.57
2022-11-14T05:08:39.830Z,10.10
2022-11-14T05:11:07.858Z,10.40
2022-11-14T05:13:36.005Z,9.90
2022-11-14T05:16:08.495Z,10.03
2022-11-14T05:18:36.924Z,9.77
2022-11-14T05:21:05.166Z,9.23
2022-11-14T05:23:37.700Z,9.73
2022-11-14T05:26:08.251Z,9.33
2022-11-14T05:28:36.331Z,10.57
2022-11-14T05:31:06.026Z,10.70
2022-11-14T05:33:41.918Z,9.77
2022-11-14T05:36:14.640Z,9.13
2022-11-14T05:38:42.937Z,9.57
2022-11-14T05:41:17.182Z,9.40
2022-11-14T05:43:45.482Z,9.13
2022-11-14T05:46:14.997Z,9.07
2022-11-14T05:48:47.783Z,8.50
2022-11-14T05:51:15.859Z,9.13
2022-11-14T05:53:43.847Z,9.37
2022-11-14T05:56:12.995Z,9.17
2022-11-14T05:58:41.258Z,9.50
2022-11-14T06:01:15.351Z,9.33
2022-11-14T06:03:44.992Z,9.30
2022-11-14T06:06:15.040Z,9.13
2022-11-14T06:08:43.187Z,9.27
2022-11-14T06:11:13.278Z,9.00
2022-11-14T06:13:41.365Z,8.70
2022-11-14T06:16:14.913Z,8.83
2022-11-14T06:18:47.393Z,8.83
2022-11-14T06:21:25.285Z,8.43
2022-11-14T06:23:54.381Z,8.70
2022-11-14T06:26:26.544Z,8.60
2022-11-14T06:28:54.928Z,9.00
2022-11-14T06:31:25.649Z,9.23
2022-11-14T06:33:53.769Z,9.30
2022-11-14T06:36:26.618Z,9.23
2022-11-14T06:38:59.301Z,9.50
2022-11-14T06:41:29.321Z,10.20
2022-11-14T06:43:57.330Z,9.20
2022-11-14T06:46:25.670Z,9.57
2022-11-14T06:48:58.669Z,9.47
2022-11-14T06:51:26.420Z,7.13
2022-11-14T06:53:54.199Z,8.57
2022-11-14T06:56:22.053Z,11.17
2022-11-14T06:58:50.590Z,10.90
2022-11-14T07:01:19.925Z,9.33
2022-11-14T07:03:47.901Z,9.43
2022-11-14T07:06:41.127Z,8.77
2022-11-14T07:09:11.006Z,9.17
2022-11-14T07:11:39.161Z,8.67
2022-11-14T07:14:21.170Z,9.13
2022-11-14T07:16:55.008Z,9.70
2022-11-14T07:19:32.942Z,9.63
2022-11-14T07:22:04.819Z,8.43
2022-11-14T07:24:37.446Z,9.20
2022-11-14T07:27:12.646Z,9.07
2022-11-14T07:29:40.649Z,9.53
2022-11-14T07:32:08.803Z,10.63
2022-11-14T07:34:36.847Z,11.70
2022-11-14T07:37:10.815Z,10.53
2022-11-14T07:39:38.769Z,11.77
2022-11-14T07:42:12.343Z,10.87
2022-11-14T07:44:43.226Z,10.60
2022-11-14T07:47:11.173Z,10.20
2022-11-14T07:49:39.277Z,9.60
2022-11-14T07:52:07.593Z,10.50
2022-11-14T07:54:35.759Z,9.77
2022-11-14T07:57:18.414Z,9.83
2022-11-14T07:59:46.542Z,10.53
2022-11-14T08:02:15.994Z,10.90
2022-11-14T08:04:49.116Z,10.10
2022-11-14T08:07:20.472Z,10.43
2022-11-14T08:09:48.827Z,11.13
2022-11-14T08:12:16.712Z,11.50
2022-11-14T08:14:44.712Z,11.37
2022-11-14T08:17:12.753Z,11.43
2022-11-14T08:19:40.593Z,11.67
2022-11-14T08:22:08.765Z,11.60
2022-11-14T08:24:41.991Z,11.47
2022-11-14T08:27:15.397Z,10.57
2022-11-14T08:29:44.040Z,11.40
2022-11-14T08:32:12.811Z,10.97
2022-11-14T08:34:41.101Z,10.40
2022-11-14T08:37:09.071Z,11.07
2022-11-14T08:39:36.895Z,10.33
2022-11-14T08:42:05.161Z,11.07
2022-11-14T08:44:37.930Z,10.27
2022-11-14T08:47:06.507Z,10.60
2022-11-14T08:49:34.979Z,10.40
2022-11-14T08:52:03.560Z,11.03
2022-11-14T08:54:32.194Z,10.73
2022-11-14T08:57:00.611Z,11.20
2022-11-14T08:59:28.495Z,11.10
2022-11-14T09:01:56.456Z,10.83
2022-11-14T09:04:29.411Z,10.70
2022-11-14T09:06:57.375Z,11.20
2022-11-14T09:09:31.449Z,11.77
2022-11-14T09:12:00.034Z,10.27
2022-11-14T09:14:27.973Z,11.80
2022-11-14T09:16:55.976Z,10.90
2022-11-14T09:19:23.957Z,12.07
2022-11-14T09:21:57.190Z,11.77
2022-11-14T09:24:27.077Z,11.93
2022-11-14T09:26:59.747Z,12.17
2022-11-14T09:29:28.837Z,10.70
2022-11-14T09:32:03.641Z,11.87
2022-11-14T09:34:31.772Z,10.67
2022-11-14T09:37:00.430Z,11.33
2022-11-14T09:39:28.394Z,10.33
2022-11-14T09:42:35.439Z,10.20
2022-11-14T09:45:05.586Z,9.87
2022-11-14T09:47:43.841Z,9.87
2022-11-14T09:50:15.471Z,8.93
2022-11-14T09:52:47.448Z,9.63
2022-11-14T09:55:33.627Z,9.37
2022-11-14T09:58:04.482Z,9.77
2022-11-14T10:01:09.387Z,8.77
2022-11-14T10:03:45.183Z,9.87
2022-11-14T10:06:31.973Z,10.23
2022-11-14T10:09:18.215Z,9.57
2022-11-14T10:11:51.940Z,9.73
2022-11-14T10:14:32.657Z,8.27
2022-11-14T10:17:25.559Z,8.90
2022-11-14T10:20:04.670Z,8.10
2022-11-14T10:23:01.592Z,7.70
2022-11-14T10:25:39.614Z,7.47
2022-11-14T10:28:32.820Z,6.67
2022-11-14T10:31:15.921Z,5.70
2022-11-14T10:33:51.338Z,5.80
2022-11-14T10:36:35.961Z,5.40
2022-11-14T10:39:14.819Z,5.00
2022-11-14T10:41:57.126Z,4.27
2022-11-14T10:44:34.194Z,4.47
2022-11-14T10:47:10.975Z,4.00
2022-11-14T10:49:39.743Z,3.80
2022-11-14T10:52:19.909Z,5.03
2022-11-14T10:54:52.384Z,4.50
2022-11-14T10:57:21.551Z,5.93
2022-11-14T10:59:50.094Z,5.87
2022-11-14T11:02:18.027Z,5.13
2022-11-14T11:04:46.488Z,7.60
2022-11-14T11:07:37.248Z,5.93
2022-11-14T11:10:24.591Z,5.30
2022-11-14T11:12:56.031Z,5.13
2022-11-14T11:15:31.610Z,5.00
2022-11-14T11:18:11.361Z,4.60
2022-11-14T11:20:42.745Z,4.80
2022-11-14T11:23:13.535Z,4.30
2022-11-14T11:25:41.719Z,4.40
2022-11-14T11:28:18.337Z,4.00
2022-11-14T11:31:05.501Z,4.13
2022-11-14T11:33:35.151Z,3.73
2022-11-14T11:36:08.660Z,3.67
2022-11-14T11:38:36.757Z,3.90
2022-11-14T11:44:14.404Z,3.97
2022-11-14T11:47:02.285Z,4.07
2022-11-14T11:49:54.565Z,4.23
2022-11-14T11:52:34.048Z,4.27
2022-11-14T11:55:14.136Z,4.00
2022-11-14T11:58:05.457Z,4.10
2022-11-14T12:00:33.625Z,3.90
2022-11-14T12:03:01.894Z,3.77
2022-11-14T12:05:54.320Z,3.80
2022-11-14T12:08:28.145Z,3.83
2022-11-14T12:10:56.101Z,4.10
2022-11-14T12:13:55.778Z,4.17
2022-11-14T12:16:49.079Z,4.07
2022-11-14T12:19:51.414Z,4.53
2022-11-14T12:22:56.858Z,4.37
2022-11-14T12:25:27.254Z,4.63
2022-11-14T12:28:07.244Z,4.87
2022-11-14T12:30:35.432Z,4.30
2022-11-14T12:33:10.905Z,4.70
2022-11-14T12:35:40.680Z,4.70
2022-11-14T12:38:15.762Z,5.10
2022-11-14T12:40:50.441Z,5.40
2022-11-14T12:43:39.933Z,5.40
2022-11-14T12:46:12.781Z,4.97
2022-11-14T12:48:42.704Z,6.10
2022-11-14T12:51:28.652Z,5.30
2022-11-14T12:53:57.874Z,5.10
2022-11-14T12:56:31.845Z,5.23
2022-11-14T12:59:05.566Z,4.93
2022-11-14T13:01:55.443Z,5.43
2022-11-14T13:04:32.460Z,5.13
2022-11-14T13:07:18.336Z,4.87
2022-11-14T13:10:11.333Z,5.10
2022-11-14T13:12:57.736Z,4.50
2022-11-14T13:15:52.246Z,4.77
2022-11-14T13:18:46.003Z,4.23
2022-11-14T13:21:43.754Z,5.10
2022-11-14T13:24:12.129Z,4.37
2022-11-14T13:26:41.909Z,5.17
2022-11-14T13:29:10.115Z,4.63
2022-11-14T13:31:37.985Z,4.97
2022-11-14T13:34:30.331Z,4.93
2022-11-14T13:37:12.431Z,5.10
2022-11-14T13:39:46.658Z,4.90
2022-11-14T13:42:33.036Z,4.47
2022-11-14T13:45:10.122Z,4.83
2022-11-14T13:48:07.601Z,4.93
2022-11-14T13:50:38.668Z,3.93
2022-11-14T13:53:15.016Z,4.43
2022-11-14T13:55:50.537Z,4.80
2022-11-14T13:58:52.308Z,5.90
2022-11-14T14:01:30.157Z,6.37
2022-11-14T14:04:00.815Z,6.50
2022-11-14T14:06:51.180Z,7.30
2022-11-14T14:09:22.379Z,6.63
2022-11-14T14:12:05.606Z,6.87
2022-11-14T14:15:09.967Z,6.73
2022-11-14T14:17:49.619Z,6.93
2022-11-14T14:20:40.118Z,7.20
2022-11-14T14:23:30.859Z,6.57
2022-11-14T14:26:36.790Z,6.50
2022-11-14T14:29:24.541Z,6.60
2022-11-14T14:31:53.141Z,6.57
2022-11-14T14:34:31.658Z,6.67
2022-11-14T14:36:59.619Z,4.87
2022-11-14T14:39:28.797Z,4.40
2022-11-14T14:41:57.823Z,4.90
2022-11-14T14:44:30.987Z,7.97
2022-11-14T14:46:59.143Z,7.77
2022-11-14T14:49:31.791Z,8.27
2022-11-14T14:51:59.749Z,7.70
2022-11-14T14:54:30.613Z,7.63
2022-11-14T14:57:03.904Z,7.80
2022-11-14T14:59:32.106Z,7.50
2022-11-14T15:02:00.052Z,7.70
2022-11-14T15:04:28.767Z,7.37
2022-11-14T15:06:58.601Z,7.17
2022-11-14T15:09:28.890Z,7.40
2022-11-14T15:12:01.230Z,5.70
2022-11-14T15:14:33.301Z,6.13
2022-11-14T15:17:01.260Z,5.77
2022-11-14T15:19:33.817Z,5.43
2022-11-14T15:22:05.850Z,5.37
2022-11-14T15:24:33.699Z,5.00
2022-11-14T15:27:05.101Z,5.57
2022-11-14T15:29:34.163Z,5.53
2022-11-14T15:32:05.740Z,5.47
2022-11-14T15:34:35.419Z,5.40
2022-11-14T15:37:08.285Z,5.33
2022-11-14T15:39:36.232Z,4.93
2022-11-14T15:42:20.549Z,5.40
2022-11-14T15:44:48.779Z,5.10
2022-11-14T15:47:20.767Z,5.67
2022-11-14T15:50:00.770Z,5.37
2022-11-14T15:52:36.858Z,5.10
2022-11-14T15:55:05.017Z,5.50
2022-11-14T15:57:33.359Z,4.90
2022-11-14T16:00:01.281Z,5.40
2022-11-14T16:02:34.282Z,5.63
2022-11-14T16:05:02.421Z,6.37
2022-11-14T16:07:30.434Z,5.80
2022-11-14T16:09:58.379Z,6.00
2022-11-14T16:12:26.249Z,7.40
2022-11-14T16:14:54.182Z,7.97
2022-11-14T16:17:22.088Z,7.67
2022-11-14T16:19:50.062Z,6.90
2022-11-14T16:22:18.835Z,7.60
2022-11-14T16:24:46.888Z,7.07
2022-11-14T16:27:14.892Z,7.47
2022-11-14T16:29:42.922Z,7.03
2022-11-14T16:32:12.413Z,8.70
2022-11-14T16:34:40.598Z,8.40
2022-11-14T16:37:14.422Z,8.73
2022-11-14T16:39:42.520Z,8.77
2022-11-14T16:42:10.531Z,9.17
2022-11-14T16:44:41.983Z,8.83
2022-11-14T16:47:15.493Z,8.50
2022-11-14T16:49:43.796Z,8.80
2022-11-14T16:52:12.347Z,7.60
2022-11-14T16:54:40.481Z,6.53
2022-11-14T16:57:08.464Z,7.30
2022-11-14T16:59:36.369Z,6.87
2022-11-14T17:02:04.893Z,6.97
2022-11-14T17:04:33.218Z,6.53
2022-11-14T17:07:01.151Z,6.60
2022-11-14T17:09:29.290Z,6.90
2022-11-14T17:12:00.768Z,7.07
2022-11-14T17:14:28.851Z,6.60
2022-11-14T17:16:56.677Z,6.50
2022-11-14T17:19:24.598Z,5.97
2022-11-14T17:21:52.585Z,6.40
2022-11-14T17:24:20.418Z,6.43
2022-11-14T17:26:48.295Z,6.13
2022-11-14T17:29:16.360Z,6.00
2022-11-14T17:31:46.971Z,5.90
2022-11-14T17:34:15.385Z,5.87
2022-11-14T17:36:43.769Z,6.97
2022-11-14T17:39:12.314Z,5.93
2022-11-14T17:41:40.666Z,6.90
2022-11-14T17:44:12.621Z,6.33
2022-11-14T17:46:40.998Z,7.63
2022-11-14T17:49:09.164Z,7.57
2022-11-14T17:51:37.877Z,8.67
2022-11-14T17:54:07.412Z,8.67
2022-11-14T17:56:35.554Z,8.70
2022-11-14T17:59:04.158Z,8.90
2022-11-14T18:01:33.015Z,8.10
2022-11-14T18:04:05.826Z,8.83
2022-11-14T18:06:34.520Z,8.23
2022-11-14T18:09:08.137Z,8.73
2022-11-14T18:11:39.719Z,8.60
2022-11-14T18:14:07.982Z,9.07
2022-11-14T18:17:05.426Z,9.07
2022-11-14T18:19:24.123Z,9.70
2022-11-14T18:21:53.934Z,9.10
2022-11-14T18:24:22.957Z,8.63
2022-11-14T18:26:51.227Z,8.10
2022-11-14T18:29:22.362Z,7.40
2022-11-14T18:31:56.419Z,7.30
2022-11-14T18:34:30.447Z,7.40
2022-11-14T18:36:59.205Z,7.47
2022-11-14T18:39:28.227Z,7.03
2022-11-14T18:41:56.682Z,7.70
2022-11-14T18:44:25.869Z,6.93
2022-11-14T18:46:54.055Z,7.03
2022-11-14T18:49:22.300Z,7.00
2022-11-14T18:51:53.595Z,7.13
2022-11-14T18:54:27.682Z,6.60
2022-11-14T18:56:56.594Z,6.77
2022-11-14T18:59:24.983Z,7.20
2022-11-14T19:01:59.920Z,6.93
2022-11-14T19:04:28.674Z,6.77
2022-11-14T19:06:57.782Z,8.00
2022-11-14T19:09:26.363Z,8.80
2022-11-14T19:12:21.655Z,9.13
2022-11-14T19:14:52.319Z,11.83
2022-11-14T19:17:22.964Z,12.37
2022-11-14T19:19:52.132Z,11.87
2022-11-14T19:22:25.038Z,11.03
2022-11-14T19:24:53.568Z,9.07
2022-11-14T19:27:23.335Z,6.47
2022-11-14T19:29:52.274Z,7.70
2022-11-14T19:32:20.917Z,7.77
2022-11-14T19:34:49.332Z,8.37
2022-11-14T19:37:20.313Z,8.97
2022-11-14T19:40:06.054Z,8.33
2022-11-14T19:42:34.930Z,8.53
2022-11-14T19:45:08.252Z,8.73
2022-11-14T19:47:39.799Z,8.07
2022-11-14T19:50:08.408Z,7.83
2022-11-14T19:52:36.567Z,7.63
2022-11-14T19:55:04.930Z,7.20
2022-11-14T19:57:32.921Z,6.73
2022-11-14T20:00:01.405Z,6.53
2022-11-14T20:02:31.006Z,5.83
2022-11-14T20:04:59.248Z,6.27
2022-11-14T20:07:27.703Z,7.83
2022-11-14T20:09:56.029Z,6.50
2022-11-14T20:12:24.294Z,6.63
2022-11-14T20:14:52.468Z,7.23
2022-11-14T20:17:20.642Z,6.90
2022-11-14T20:19:49.011Z,7.47
2022-11-14T20:22:17.243Z,7.50
2022-11-14T20:24:45.479Z,7.60
2022-11-14T20:27:13.570Z,7.67
2022-11-14T20:29:41.836Z,7.97
2022-11-14T20:32:15.463Z,7.10
2022-11-14T20:34:43.987Z,7.13
2022-11-14T20:37:15.057Z,8.20
2022-11-14T20:39:45.726Z,8.80
2022-11-14T20:42:14.165Z,8.27
2022-11-14T20:44:42.492Z,9.87
2022-11-14T20:47:11.294Z,10.17
2022-11-14T20:49:39.750Z,9.63
2022-11-14T20:52:07.970Z,9.57
2022-11-14T20:54:36.220Z,9.87
2022-11-14T20:57:04.649Z,9.67
2022-11-14T20:59:33.074Z,9.00
2022-11-14T21:02:01.289Z,9.30
2022-11-14T21:04:29.561Z,9.40
2022-11-14T21:06:57.829Z,8.30
2022-11-14T21:09:25.961Z,9.33
2022-11-14T21:11:54.179Z,8.17
2022-11-14T21:14:22.719Z,8.07
2022-11-14T21:16:50.813Z,8.97
2022-11-14T21:19:18.661Z,10.60
2022-11-14T21:21:47.125Z,11.90
2022-11-14T21:24:15.337Z,11.57
2022-11-14T21:26:43.546Z,11.37
2022-11-14T21:29:13.953Z,9.80
2022-11-14T21:31:46.315Z,10.33
2022-11-14T21:34:16.505Z,9.97
2022-11-14T21:36:46.268Z,9.80
2022-11-14T21:39:16.907Z,10.07
2022-11-14T21:41:46.691Z,9.77
2022-11-14T21:44:15.784Z,9.10
2022-11-14T21:46:44.563Z,7.30
2022-11-14T21:49:12.705Z,9.50
2022-11-14T21:51:40.744Z,9.37
2022-11-14T21:54:10.292Z,8.27
2022-11-14T21:56:38.619Z,8.20
2022-11-14T21:59:15.487Z,7.57
2022-11-14T22:02:04.806Z,8.97
2022-11-14T22:04:33.245Z,8.80
2022-11-14T22:07:06.134Z,8.23
2022-11-14T22:09:34.631Z,8.20
2022-11-14T22:12:02.966Z,8.27
2022-11-14T22:14:30.976Z,7.67
2022-11-14T22:16:59.748Z,7.70
2022-11-14T22:19:27.846Z,8.03
2022-11-14T22:21:56.219Z,7.23
2022-11-14T22:24:25.130Z,7.37
2022-11-14T22:26:53.236Z,6.80
2022-11-14T22:29:21.324Z,7.03
2022-11-14T22:31:49.435Z,6.70
2022-11-14T22:34:17.811Z,6.57
2022-11-14T22:36:46.069Z,6.13
2022-11-14T22:39:14.233Z,6.70
2022-11-14T22:41:42.802Z,5.90
2022-11-14T22:44:11.255Z,5.80
2022-11-14T22:46:39.303Z,6.17
2022-11-14T22:49:07.355Z,7.33
2022-11-14T22:51:35.351Z,6.63
2022-11-14T22:54:03.238Z,5.97
2022-11-14T22:56:31.290Z,6.63
2022-11-14T22:59:00.102Z,6.30
2022-11-14T23:01:32.461Z,6.83
2022-11-14T23:04:02.025Z,6.67
2022-11-14T23:06:30.371Z,5.57
2022-11-14T23:08:58.293Z,6.60
2022-11-14T23:11:27.620Z,6.63
2022-11-14T23:13:56.688Z,6.30
2022-11-14T23:16:29.095Z,5.47
2022-11-14T23:18:58.558Z,5.80
2022-11-14T23:21:28.131Z,6.03
2022-11-14T23:24:03.646Z,6.13
2022-11-14T23:26:31.815Z,5.30
2022-11-14T23:29:00.004Z,6.33
2022-11-14T23:31:28.005Z,5.47
2022-11-14T23:33:56.615Z,5.37
2022-11-14T23:36:24.433Z,5.67
2022-11-14T23:38:55.129Z,6.50
2022-11-14T23:41:24.664Z,7.63
2022-11-14T23:43:52.466Z,5.80
2022-11-14T23:46:20.230Z,6.30
2022-11-14T23:48:48.084Z,6.30
2022-11-14T23:51:15.914Z,5.87
2022-11-14T23:53:43.795Z,6.90
2022-11-14T23:56:13.377Z,6.03
2022-11-14T23:58:41.512Z,5.93
